sensor_id;sensor_type;location;lat;lon;timestamp;P1;durP1;ratioP1;P2;durP2;ratioP2
9032;SDS011;4551;53.164;8.210;2022-08-19T00:01:25;7.60;;;6.90;;
9032;SDS011;4551;53.164;8.210;2022-08-19T00:03:56;8.50;;;7.70;;
9032;SDS011;4551;53.164;8.210;2022-08-19T00:06:25;8.60;;;7.77;;
9032;SDS011;4551;53.164;8.210;2022-08-19T00:08:54;9.17;;;6.80;;
9032;SDS011;4551;53.164;8.210;2022-08-19T00:11:23;9.07;;;7.60;;
9032;SDS011;4551;53.164;8.210;2022-08-19T00:13:55;8.63;;;7.03;;
9032;SDS011;4551;53.164;8.210;2022-08-19T00:16:24;10.03;;;7.67;;
9032;SDS011;4551;53.164;8.210;2022-08-19T00:18:52;9.37;;;7.97;;
9032;SDS011;4551;53.164;8.210;2022-08-19T00:21:22;8.57;;;7.77;;
9032;SDS011;4551;53.164;8.210;2022-08-19T00:23:51;8.50;;;7.67;;
9032;SDS011;4551;53.164;8.210;2022-08-19T00:26:19;8.57;;;7.67;;
9032;SDS011;4551;53.164;8.210;2022-08-19T00:28:48;8.47;;;7.40;;
9032;SDS011;4551;53.164;8.210;2022-08-19T00:31:17;7.90;;;7.20;;
9032;SDS011;4551;53.164;8.210;2022-08-19T00:33:45;7.73;;;7.03;;
9032;SDS011;4551;53.164;8.210;2022-08-19T00:36:14;9.13;;;7.87;;
9032;SDS011;4551;53.164;8.210;2022-08-19T00:38:42;9.13;;;8.33;;
9032;SDS011;4551;53.164;8.210;2022-08-19T00:41:12;10.10;;;8.07;;
9032;SDS011;4551;53.164;8.210;2022-08-19T00:43:42;9.13;;;8.33;;
9032;SDS011;4551;53.164;8.210;2022-08-19T00:46:11;12.50;;;9.97;;
9032;SDS011;4551;53.164;8.210;2022-08-19T00:48:40;10.80;;;9.07;;
9032;SDS011;4551;53.164;8.210;2022-08-19T00:51:08;10.60;;;8.63;;
9032;SDS011;4551;53.164;8.210;2022-08-19T00:53:37;15.47;;;12.53;;
9032;SDS011;4551;53.164;8.210;2022-08-19T00:56:05;23.80;;;17.57;;
9032;SDS011;4551;53.164;8.210;2022-08-19T00:58:35;29.80;;;19.87;;
9032;SDS011;4551;53.164;8.210;2022-08-19T01:01:06;31.47;;;19.80;;
9032;SDS011;4551;53.164;8.210;2022-08-19T01:03:37;70.97;;;37.07;;
9032;SDS011;4551;53.164;8.210;2022-08-19T01:06:25;326.57;;;126.50;;
9032;SDS011;4551;53.164;8.210;2022-08-19T01:08:54;520.80;;;201.33;;
9032;SDS011;4551;53.164;8.210;2022-08-19T01:11:22;712.77;;;281.90;;
9032;SDS011;4551;53.164;8.210;2022-08-19T01:13:50;1054.40;;;414.37;;
9032;SDS011;4551;53.164;8.210;2022-08-19T01:16:21;835.57;;;335.07;;
9032;SDS011;4551;53.164;8.210;2022-08-19T01:18:52;586.23;;;231.00;;
9032;SDS011;4551;53.164;8.210;2022-08-19T01:21:22;501.23;;;194.07;;
9032;SDS011;4551;53.164;8.210;2022-08-19T01:23:57;439.73;;;171.23;;
9032;SDS011;4551;53.164;8.210;2022-08-19T01:26:26;374.57;;;136.93;;
9032;SDS011;4551;53.164;8.210;2022-08-19T01:28:58;167.30;;;67.67;;
9032;SDS011;4551;53.164;8.210;2022-08-19T01:31:30;153.73;;;62.93;;
9032;SDS011;4551;53.164;8.210;2022-08-19T01:33:59;120.93;;;52.07;;
9032;SDS011;4551;53.164;8.210;2022-08-19T01:36:30;88.57;;;41.50;;
9032;SDS011;4551;53.164;8.210;2022-08-19T01:39:02;86.57;;;40.33;;
9032;SDS011;4551;53.164;8.210;2022-08-19T01:41:32;86.67;;;39.10;;
9032;SDS011;4551;53.164;8.210;2022-08-19T01:44:01;56.43;;;29.67;;
9032;SDS011;4551;53.164;8.210;2022-08-19T01:46:45;57.73;;;29.63;;
9032;SDS011;4551;53.164;8.210;2022-08-19T01:49:14;42.17;;;25.00;;
9032;SDS011;4551;53.164;8.210;2022-08-19T01:51:44;31.97;;;20.37;;
9032;SDS011;4551;53.164;8.210;2022-08-19T01:54:15;35.97;;;20.80;;
9032;SDS011;4551;53.164;8.210;2022-08-19T01:56:53;31.60;;;18.20;;
9032;SDS011;4551;53.164;8.210;2022-08-19T01:59:25;29.87;;;18.03;;
9032;SDS011;4551;53.164;8.210;2022-08-19T02:01:53;23.57;;;14.80;;
9032;SDS011;4551;53.164;8.210;2022-08-19T02:04:21;20.60;;;13.63;;
9032;SDS011;4551;53.164;8.210;2022-08-19T02:06:51;25.17;;;14.37;;
9032;SDS011;4551;53.164;8.210;2022-08-19T02:09:21;15.87;;;11.93;;
9032;SDS011;4551;53.164;8.210;2022-08-19T02:11:49;31.23;;;17.90;;
9032;SDS011;4551;53.164;8.210;2022-08-19T02:14:17;29.07;;;16.53;;
9032;SDS011;4551;53.164;8.210;2022-08-19T02:16:45;39.40;;;20.10;;
9032;SDS011;4551;53.164;8.210;2022-08-19T02:19:14;164.87;;;56.57;;
9032;SDS011;4551;53.164;8.210;2022-08-19T02:21:42;294.03;;;98.27;;
9032;SDS011;4551;53.164;8.210;2022-08-19T02:24:10;277.33;;;93.77;;
9032;SDS011;4551;53.164;8.210;2022-08-19T02:26:40;487.43;;;162.90;;
9032;SDS011;4551;53.164;8.210;2022-08-19T02:29:09;817.07;;;289.33;;
9032;SDS011;4551;53.164;8.210;2022-08-19T02:31:37;1520.60;;;513.87;;
9032;SDS011;4551;53.164;8.210;2022-08-19T02:34:05;1954.43;;;637.57;;
9032;SDS011;4551;53.164;8.210;2022-08-19T02:36:33;1865.07;;;619.27;;
9032;SDS011;4551;53.164;8.210;2022-08-19T02:39:07;1431.67;;;499.80;;
9032;SDS011;4551;53.164;8.210;2022-08-19T02:41:35;1158.13;;;408.37;;
9032;SDS011;4551;53.164;8.210;2022-08-19T02:44:04;843.83;;;306.73;;
9032;SDS011;4551;53.164;8.210;2022-08-19T02:46:53;595.83;;;211.73;;
9032;SDS011;4551;53.164;8.210;2022-08-19T02:49:21;317.57;;;110.27;;
9032;SDS011;4551;53.164;8.210;2022-08-19T02:51:49;339.63;;;115.67;;
9032;SDS011;4551;53.164;8.210;2022-08-19T02:54:18;485.50;;;165.47;;
9032;SDS011;4551;53.164;8.210;2022-08-19T02:56:46;496.60;;;167.97;;
9032;SDS011;4551;53.164;8.210;2022-08-19T02:59:15;210.40;;;73.47;;
9032;SDS011;4551;53.164;8.210;2022-08-19T03:01:48;118.93;;;45.03;;
9032;SDS011;4551;53.164;8.210;2022-08-19T03:04:17;36.70;;;19.17;;
9032;SDS011;4551;53.164;8.210;2022-08-19T03:06:46;46.33;;;22.23;;
9032;SDS011;4551;53.164;8.210;2022-08-19T03:09:15;31.17;;;14.60;;
9032;SDS011;4551;53.164;8.210;2022-08-19T03:11:44;22.57;;;12.90;;
9032;SDS011;4551;53.164;8.210;2022-08-19T03:14:16;18.83;;;10.67;;
9032;SDS011;4551;53.164;8.210;2022-08-19T03:16:45;15.80;;;9.90;;
9032;SDS011;4551;53.164;8.210;2022-08-19T03:19:15;14.60;;;8.93;;
9032;SDS011;4551;53.164;8.210;2022-08-19T03:21:45;9.57;;;8.30;;
9032;SDS011;4551;53.164;8.210;2022-08-19T03:24:13;10.33;;;8.60;;
9032;SDS011;4551;53.164;8.210;2022-08-19T03:26:43;9.80;;;8.60;;
9032;SDS011;4551;53.164;8.210;2022-08-19T03:29:13;11.70;;;9.47;;
9032;SDS011;4551;53.164;8.210;2022-08-19T03:31:57;11.00;;;9.10;;
9032;SDS011;4551;53.164;8.210;2022-08-19T03:34:28;10.63;;;8.33;;
9032;SDS011;4551;53.164;8.210;2022-08-19T03:36:58;11.03;;;9.03;;
9032;SDS011;4551;53.164;8.210;2022-08-19T03:39:30;10.13;;;8.77;;
9032;SDS011;4551;53.164;8.210;2022-08-19T03:41:58;9.77;;;8.73;;
9032;SDS011;4551;53.164;8.210;2022-08-19T03:44:48;8.30;;;7.40;;
9032;SDS011;4551;53.164;8.210;2022-08-19T03:47:18;7.47;;;6.77;;
9032;SDS011;4551;53.164;8.210;2022-08-19T03:49:46;8.00;;;7.20;;
9032;SDS011;4551;53.164;8.210;2022-08-19T03:52:14;7.77;;;6.47;;
9032;SDS011;4551;53.164;8.210;2022-08-19T03:54:43;8.13;;;6.73;;
9032;SDS011;4551;53.164;8.210;2022-08-19T03:57:11;8.20;;;7.33;;
9032;SDS011;4551;53.164;8.210;2022-08-19T03:59:39;7.10;;;6.40;;
9032;SDS011;4551;53.164;8.210;2022-08-19T04:02:08;7.07;;;6.37;;
9032;SDS011;4551;53.164;8.210;2022-08-19T04:04:41;7.37;;;6.53;;
9032;SDS011;4551;53.164;8.210;2022-08-19T04:07:11;7.33;;;6.63;;
9032;SDS011;4551;53.164;8.210;2022-08-19T04:09:42;8.17;;;6.80;;
9032;SDS011;4551;53.164;8.210;2022-08-19T04:12:10;9.27;;;7.30;;
9032;SDS011;4551;53.164;8.210;2022-08-19T04:14:38;15.43;;;9.70;;
9032;SDS011;4551;53.164;8.210;2022-08-19T04:17:07;13.93;;;9.67;;
9032;SDS011;4551;53.164;8.210;2022-08-19T04:19:36;16.47;;;9.87;;
9032;SDS011;4551;53.164;8.210;2022-08-19T04:22:06;15.70;;;10.93;;
9032;SDS011;4551;53.164;8.210;2022-08-19T04:24:34;16.43;;;10.37;;
9032;SDS011;4551;53.164;8.210;2022-08-19T04:27:04;21.10;;;12.13;;
9032;SDS011;4551;53.164;8.210;2022-08-19T04:29:32;27.57;;;13.87;;
9032;SDS011;4551;53.164;8.210;2022-08-19T04:32:01;30.57;;;14.73;;
9032;SDS011;4551;53.164;8.210;2022-08-19T04:34:35;27.13;;;14.17;;
9032;SDS011;4551;53.164;8.210;2022-08-19T04:37:25;20.77;;;11.93;;
9032;SDS011;4551;53.164;8.210;2022-08-19T04:40:04;47.40;;;21.10;;
9032;SDS011;4551;53.164;8.210;2022-08-19T04:42:50;46.67;;;21.07;;
9032;SDS011;4551;53.164;8.210;2022-08-19T04:45:20;41.83;;;17.80;;
9032;SDS011;4551;53.164;8.210;2022-08-19T04:47:49;35.77;;;16.90;;
9032;SDS011;4551;53.164;8.210;2022-08-19T04:50:43;28.10;;;15.73;;
9032;SDS011;4551;53.164;8.210;2022-08-19T04:53:14;37.97;;;19.00;;
9032;SDS011;4551;53.164;8.210;2022-08-19T04:55:42;36.73;;;18.43;;
9032;SDS011;4551;53.164;8.210;2022-08-19T04:58:10;43.40;;;20.30;;
9032;SDS011;4551;53.164;8.210;2022-08-19T05:00:38;44.83;;;19.47;;
9032;SDS011;4551;53.164;8.210;2022-08-19T05:03:07;32.60;;;17.33;;
9032;SDS011;4551;53.164;8.210;2022-08-19T05:05:37;23.00;;;13.27;;
9032;SDS011;4551;53.164;8.210;2022-08-19T05:08:11;22.17;;;13.00;;
9032;SDS011;4551;53.164;8.210;2022-08-19T05:10:42;31.30;;;14.67;;
9032;SDS011;4551;53.164;8.210;2022-08-19T05:13:10;31.57;;;16.43;;
9032;SDS011;4551;53.164;8.210;2022-08-19T05:15:40;27.40;;;16.17;;
9032;SDS011;4551;53.164;8.210;2022-08-19T05:18:08;16.47;;;11.17;;
9032;SDS011;4551;53.164;8.210;2022-08-19T05:20:54;24.63;;;13.43;;
9032;SDS011;4551;53.164;8.210;2022-08-19T05:23:39;27.93;;;13.80;;
9032;SDS011;4551;53.164;8.210;2022-08-19T05:26:09;28.23;;;14.80;;
9032;SDS011;4551;53.164;8.210;2022-08-19T05:28:37;26.43;;;14.27;;
9032;SDS011;4551;53.164;8.210;2022-08-19T05:31:05;27.87;;;14.77;;
9032;SDS011;4551;53.164;8.210;2022-08-19T05:33:33;29.90;;;16.40;;
9032;SDS011;4551;53.164;8.210;2022-08-19T05:36:02;32.10;;;15.70;;
9032;SDS011;4551;53.164;8.210;2022-08-19T05:38:33;33.83;;;17.33;;
9032;SDS011;4551;53.164;8.210;2022-08-19T05:41:05;34.17;;;17.13;;
9032;SDS011;4551;53.164;8.210;2022-08-19T05:43:36;29.37;;;16.90;;
9032;SDS011;4551;53.164;8.210;2022-08-19T05:46:05;33.97;;;18.53;;
9032;SDS011;4551;53.164;8.210;2022-08-19T05:48:33;34.70;;;19.10;;
9032;SDS011;4551;53.164;8.210;2022-08-19T05:51:04;32.17;;;16.77;;
9032;SDS011;4551;53.164;8.210;2022-08-19T05:53:33;34.17;;;16.83;;
9032;SDS011;4551;53.164;8.210;2022-08-19T05:56:03;26.73;;;14.50;;
9032;SDS011;4551;53.164;8.210;2022-08-19T05:58:33;27.43;;;14.03;;
9032;SDS011;4551;53.164;8.210;2022-08-19T06:01:03;19.53;;;12.47;;
9032;SDS011;4551;53.164;8.210;2022-08-19T06:03:32;19.43;;;12.00;;
9032;SDS011;4551;53.164;8.210;2022-08-19T06:06:01;18.13;;;10.83;;
9032;SDS011;4551;53.164;8.210;2022-08-19T06:08:33;14.73;;;9.50;;
9032;SDS011;4551;53.164;8.210;2022-08-19T06:11:12;11.77;;;8.57;;
9032;SDS011;4551;53.164;8.210;2022-08-19T06:13:48;9.53;;;8.37;;
9032;SDS011;4551;53.164;8.210;2022-08-19T06:16:27;14.73;;;9.10;;
9032;SDS011;4551;53.164;8.210;2022-08-19T06:19:00;12.73;;;8.70;;
9032;SDS011;4551;53.164;8.210;2022-08-19T06:21:33;10.27;;;8.67;;
9032;SDS011;4551;53.164;8.210;2022-08-19T06:24:03;10.87;;;7.70;;
9032;SDS011;4551;53.164;8.210;2022-08-19T06:26:32;10.03;;;7.20;;
9032;SDS011;4551;53.164;8.210;2022-08-19T06:29:02;7.43;;;6.67;;
9032;SDS011;4551;53.164;8.210;2022-08-19T06:31:34;9.37;;;6.83;;
9032;SDS011;4551;53.164;8.210;2022-08-19T06:34:03;7.83;;;6.60;;
9032;SDS011;4551;53.164;8.210;2022-08-19T06:36:33;6.90;;;5.10;;
9032;SDS011;4551;53.164;8.210;2022-08-19T06:39:03;5.97;;;5.43;;
9032;SDS011;4551;53.164;8.210;2022-08-19T06:41:34;5.77;;;4.87;;
9032;SDS011;4551;53.164;8.210;2022-08-19T06:44:09;4.67;;;4.27;;
9032;SDS011;4551;53.164;8.210;2022-08-19T06:46:40;4.57;;;4.17;;
9032;SDS011;4551;53.164;8.210;2022-08-19T06:49:10;4.37;;;4.07;;
9032;SDS011;4551;53.164;8.210;2022-08-19T06:51:40;3.60;;;3.40;;
9032;SDS011;4551;53.164;8.210;2022-08-19T06:54:10;22.90;;;4.43;;
9032;SDS011;4551;53.164;8.210;2022-08-19T06:56:45;4.13;;;3.47;;
9032;SDS011;4551;53.164;8.210;2022-08-19T06:59:14;3.90;;;3.60;;
9032;SDS011;4551;53.164;8.210;2022-08-19T07:01:46;4.17;;;3.77;;
9032;SDS011;4551;53.164;8.210;2022-08-19T07:04:16;3.83;;;3.47;;
9032;SDS011;4551;53.164;8.210;2022-08-19T07:06:46;3.70;;;3.40;;
9032;SDS011;4551;53.164;8.210;2022-08-19T07:09:21;4.43;;;3.83;;
9032;SDS011;4551;53.164;8.210;2022-08-19T07:11:49;4.30;;;3.93;;
9032;SDS011;4551;53.164;8.210;2022-08-19T07:14:20;4.37;;;3.70;;
9032;SDS011;4551;53.164;8.210;2022-08-19T07:16:54;3.30;;;3.00;;
9032;SDS011;4551;53.164;8.210;2022-08-19T07:19:24;4.07;;;3.00;;
9032;SDS011;4551;53.164;8.210;2022-08-19T07:21:54;3.63;;;3.10;;
9032;SDS011;4551;53.164;8.210;2022-08-19T07:24:23;3.23;;;2.93;;
9032;SDS011;4551;53.164;8.210;2022-08-19T07:27:00;6.87;;;2.97;;
9032;SDS011;4551;53.164;8.210;2022-08-19T07:29:35;3.53;;;3.23;;
9032;SDS011;4551;53.164;8.210;2022-08-19T07:32:06;3.17;;;2.90;;
9032;SDS011;4551;53.164;8.210;2022-08-19T07:34:38;3.30;;;2.83;;
9032;SDS011;4551;53.164;8.210;2022-08-19T07:37:08;4.93;;;3.37;;
9032;SDS011;4551;53.164;8.210;2022-08-19T07:39:36;3.03;;;2.83;;
9032;SDS011;4551;53.164;8.210;2022-08-19T07:42:07;2.90;;;2.70;;
9032;SDS011;4551;53.164;8.210;2022-08-19T07:44:38;4.10;;;2.97;;
9032;SDS011;4551;53.164;8.210;2022-08-19T07:47:15;3.47;;;2.90;;
9032;SDS011;4551;53.164;8.210;2022-08-19T07:50:05;4.87;;;2.70;;
9032;SDS011;4551;53.164;8.210;2022-08-19T07:52:35;2.47;;;2.27;;
9032;SDS011;4551;53.164;8.210;2022-08-19T07:55:05;3.13;;;2.77;;
9032;SDS011;4551;53.164;8.210;2022-08-19T07:57:55;3.77;;;2.70;;
9032;SDS011;4551;53.164;8.210;2022-08-19T08:00:23;2.73;;;2.50;;
9032;SDS011;4551;53.164;8.210;2022-08-19T08:02:53;3.87;;;2.90;;
9032;SDS011;4551;53.164;8.210;2022-08-19T08:05:22;3.10;;;2.90;;
9032;SDS011;4551;53.164;8.210;2022-08-19T08:08:09;2.30;;;2.20;;
9032;SDS011;4551;53.164;8.210;2022-08-19T08:10:55;3.17;;;2.73;;
9032;SDS011;4551;53.164;8.210;2022-08-19T08:13:24;3.87;;;2.63;;
9032;SDS011;4551;53.164;8.210;2022-08-19T08:15:52;3.33;;;2.50;;
9032;SDS011;4551;53.164;8.210;2022-08-19T08:18:23;2.63;;;2.43;;
9032;SDS011;4551;53.164;8.210;2022-08-19T08:20:56;4.20;;;2.87;;
9032;SDS011;4551;53.164;8.210;2022-08-19T08:23:25;3.93;;;3.53;;
9032;SDS011;4551;53.164;8.210;2022-08-19T08:25:55;2.90;;;2.70;;
9032;SDS011;4551;53.164;8.210;2022-08-19T08:28:25;4.30;;;3.07;;
9032;SDS011;4551;53.164;8.210;2022-08-19T08:30:56;3.23;;;2.70;;
9032;SDS011;4551;53.164;8.210;2022-08-19T08:33:27;2.40;;;2.20;;
9032;SDS011;4551;53.164;8.210;2022-08-19T08:36:00;2.87;;;2.43;;
9032;SDS011;4551;53.164;8.210;2022-08-19T08:38:30;2.93;;;2.60;;
9032;SDS011;4551;53.164;8.210;2022-08-19T08:41:06;3.60;;;2.60;;
9032;SDS011;4551;53.164;8.210;2022-08-19T08:43:46;2.90;;;2.57;;
9032;SDS011;4551;53.164;8.210;2022-08-19T08:46:18;3.13;;;2.70;;
9032;SDS011;4551;53.164;8.210;2022-08-19T08:49:02;3.20;;;2.80;;
9032;SDS011;4551;53.164;8.210;2022-08-19T08:51:38;4.33;;;2.67;;
9032;SDS011;4551;53.164;8.210;2022-08-19T08:54:14;3.30;;;2.40;;
9032;SDS011;4551;53.164;8.210;2022-08-19T08:56:47;2.63;;;2.43;;
9032;SDS011;4551;53.164;8.210;2022-08-19T08:59:20;2.83;;;2.53;;
9032;SDS011;4551;53.164;8.210;2022-08-19T09:01:51;2.27;;;2.17;;
9032;SDS011;4551;53.164;8.210;2022-08-19T09:04:21;3.20;;;2.63;;
9032;SDS011;4551;53.164;8.210;2022-08-19T09:06:51;2.40;;;2.10;;
9032;SDS011;4551;53.164;8.210;2022-08-19T09:09:26;2.73;;;2.53;;
9032;SDS011;4551;53.164;8.210;2022-08-19T09:12:00;2.30;;;2.20;;
9032;SDS011;4551;53.164;8.210;2022-08-19T09:14:39;3.63;;;3.23;;
9032;SDS011;4551;53.164;8.210;2022-08-19T09:17:18;3.47;;;2.80;;
9032;SDS011;4551;53.164;8.210;2022-08-19T09:19:59;4.00;;;2.70;;
9032;SDS011;4551;53.164;8.210;2022-08-19T09:22:34;2.93;;;2.63;;
9032;SDS011;4551;53.164;8.210;2022-08-19T09:25:04;2.83;;;2.60;;
9032;SDS011;4551;53.164;8.210;2022-08-19T09:27:35;2.57;;;2.43;;
9032;SDS011;4551;53.164;8.210;2022-08-19T09:30:09;3.07;;;2.83;;
9032;SDS011;4551;53.164;8.210;2022-08-19T09:32:41;2.93;;;2.60;;
9032;SDS011;4551;53.164;8.210;2022-08-19T09:35:11;2.90;;;2.33;;
9032;SDS011;4551;53.164;8.210;2022-08-19T09:37:40;2.90;;;2.53;;
9032;SDS011;4551;53.164;8.210;2022-08-19T09:40:10;3.00;;;2.80;;
9032;SDS011;4551;53.164;8.210;2022-08-19T09:42:41;2.60;;;2.40;;
9032;SDS011;4551;53.164;8.210;2022-08-19T09:45:18;3.03;;;2.80;;
9032;SDS011;4551;53.164;8.210;2022-08-19T09:47:49;2.57;;;2.20;;
9032;SDS011;4551;53.164;8.210;2022-08-19T09:50:21;2.20;;;2.10;;
9032;SDS011;4551;53.164;8.210;2022-08-19T09:52:51;2.70;;;2.50;;
9032;SDS011;4551;53.164;8.210;2022-08-19T09:55:24;2.10;;;2.00;;
9032;SDS011;4551;53.164;8.210;2022-08-19T09:57:59;2.33;;;2.10;;
9032;SDS011;4551;53.164;8.210;2022-08-19T10:00:28;2.03;;;1.87;;
9032;SDS011;4551;53.164;8.210;2022-08-19T10:02:57;2.20;;;2.00;;
9032;SDS011;4551;53.164;8.210;2022-08-19T10:05:27;3.00;;;2.40;;
9032;SDS011;4551;53.164;8.210;2022-08-19T10:08:14;2.30;;;2.20;;
9032;SDS011;4551;53.164;8.210;2022-08-19T10:10:46;2.30;;;2.10;;
9032;SDS011;4551;53.164;8.210;2022-08-19T10:13:15;2.83;;;2.63;;
9032;SDS011;4551;53.164;8.210;2022-08-19T10:15:46;4.43;;;2.10;;
9032;SDS011;4551;53.164;8.210;2022-08-19T10:18:17;2.77;;;1.87;;
9032;SDS011;4551;53.164;8.210;2022-08-19T10:20:48;2.47;;;1.90;;
9032;SDS011;4551;53.164;8.210;2022-08-19T10:23:18;4.13;;;2.60;;
9032;SDS011;4551;53.164;8.210;2022-08-19T10:25:48;2.40;;;2.20;;
9032;SDS011;4551;53.164;8.210;2022-08-19T10:28:19;2.53;;;2.40;;
9032;SDS011;4551;53.164;8.210;2022-08-19T10:30:49;2.20;;;2.10;;
9032;SDS011;4551;53.164;8.210;2022-08-19T10:33:17;2.10;;;1.90;;
9032;SDS011;4551;53.164;8.210;2022-08-19T10:36:08;4.73;;;2.30;;
9032;SDS011;4551;53.164;8.210;2022-08-19T10:38:39;2.60;;;2.40;;
9032;SDS011;4551;53.164;8.210;2022-08-19T10:41:21;2.37;;;2.27;;
9032;SDS011;4551;53.164;8.210;2022-08-19T10:43:51;2.20;;;2.10;;
9032;SDS011;4551;53.164;8.210;2022-08-19T10:46:21;3.93;;;2.30;;
9032;SDS011;4551;53.164;8.210;2022-08-19T10:48:51;2.00;;;1.90;;
9032;SDS011;4551;53.164;8.210;2022-08-19T10:51:21;2.20;;;2.00;;
9032;SDS011;4551;53.164;8.210;2022-08-19T10:54:14;2.03;;;1.90;;
9032;SDS011;4551;53.164;8.210;2022-08-19T10:56:56;2.57;;;2.00;;
9032;SDS011;4551;53.164;8.210;2022-08-19T10:59:25;2.33;;;2.00;;
9032;SDS011;4551;53.164;8.210;2022-08-19T11:02:01;2.40;;;1.80;;
9032;SDS011;4551;53.164;8.210;2022-08-19T11:04:31;2.47;;;2.13;;
9032;SDS011;4551;53.164;8.210;2022-08-19T11:07:03;1.93;;;1.80;;
9032;SDS011;4551;53.164;8.210;2022-08-19T11:09:31;2.20;;;1.67;;
9032;SDS011;4551;53.164;8.210;2022-08-19T11:12:04;2.10;;;2.00;;
9032;SDS011;4551;53.164;8.210;2022-08-19T11:14:34;3.50;;;1.70;;
9032;SDS011;4551;53.164;8.210;2022-08-19T11:17:03;1.80;;;1.70;;
9032;SDS011;4551;53.164;8.210;2022-08-19T11:19:33;2.13;;;2.00;;
9032;SDS011;4551;53.164;8.210;2022-08-19T11:22:03;2.33;;;2.10;;
9032;SDS011;4551;53.164;8.210;2022-08-19T11:24:35;2.10;;;2.00;;
9032;SDS011;4551;53.164;8.210;2022-08-19T11:27:05;2.07;;;1.90;;
9032;SDS011;4551;53.164;8.210;2022-08-19T11:29:35;1.70;;;1.60;;
9032;SDS011;4551;53.164;8.210;2022-08-19T11:32:07;1.80;;;1.70;;
9032;SDS011;4551;53.164;8.210;2022-08-19T11:34:37;2.70;;;1.87;;
9032;SDS011;4551;53.164;8.210;2022-08-19T11:37:06;3.37;;;2.20;;
9032;SDS011;4551;53.164;8.210;2022-08-19T11:39:35;2.20;;;2.00;;
9032;SDS011;4551;53.164;8.210;2022-08-19T11:42:05;3.43;;;2.27;;
9032;SDS011;4551;53.164;8.210;2022-08-19T11:44:54;2.33;;;2.10;;
9032;SDS011;4551;53.164;8.210;2022-08-19T11:47:22;2.43;;;2.30;;
9032;SDS011;4551;53.164;8.210;2022-08-19T11:49:50;2.17;;;2.07;;
9032;SDS011;4551;53.164;8.210;2022-08-19T11:52:21;2.10;;;1.97;;
9032;SDS011;4551;53.164;8.210;2022-08-19T11:54:49;2.47;;;2.27;;
9032;SDS011;4551;53.164;8.210;2022-08-19T11:57:17;2.00;;;1.80;;
9032;SDS011;4551;53.164;8.210;2022-08-19T11:59:49;2.13;;;2.03;;
9032;SDS011;4551;53.164;8.210;2022-08-19T12:02:18;2.93;;;1.97;;
9032;SDS011;4551;53.164;8.210;2022-08-19T12:04:48;1.93;;;1.83;;
9032;SDS011;4551;53.164;8.210;2022-08-19T12:07:16;2.03;;;1.87;;
9032;SDS011;4551;53.164;8.210;2022-08-19T12:09:46;2.23;;;2.00;;
9032;SDS011;4551;53.164;8.210;2022-08-19T12:12:15;2.00;;;1.80;;
9032;SDS011;4551;53.164;8.210;2022-08-19T12:14:43;2.13;;;1.90;;
9032;SDS011;4551;53.164;8.210;2022-08-19T12:17:12;2.70;;;2.50;;
9032;SDS011;4551;53.164;8.210;2022-08-19T12:19:41;2.70;;;1.83;;
9032;SDS011;4551;53.164;8.210;2022-08-19T12:22:09;1.90;;;1.80;;
9032;SDS011;4551;53.164;8.210;2022-08-19T12:24:38;2.03;;;1.93;;
9032;SDS011;4551;53.164;8.210;2022-08-19T12:27:08;1.80;;;1.70;;
9032;SDS011;4551;53.164;8.210;2022-08-19T12:29:38;2.10;;;2.00;;
9032;SDS011;4551;53.164;8.210;2022-08-19T12:32:07;2.80;;;2.27;;
9032;SDS011;4551;53.164;8.210;2022-08-19T12:34:37;3.63;;;1.80;;
9032;SDS011;4551;53.164;8.210;2022-08-19T12:37:06;2.20;;;2.10;;
9032;SDS011;4551;53.164;8.210;2022-08-19T12:39:35;1.90;;;1.80;;
9032;SDS011;4551;53.164;8.210;2022-08-19T12:42:06;2.00;;;1.90;;
9032;SDS011;4551;53.164;8.210;2022-08-19T12:44:36;2.00;;;1.90;;
9032;SDS011;4551;53.164;8.210;2022-08-19T12:47:08;3.70;;;1.90;;
9032;SDS011;4551;53.164;8.210;2022-08-19T12:49:38;3.17;;;1.90;;
9032;SDS011;4551;53.164;8.210;2022-08-19T12:52:21;1.90;;;1.80;;
9032;SDS011;4551;53.164;8.210;2022-08-19T12:54:50;1.83;;;1.83;;
9032;SDS011;4551;53.164;8.210;2022-08-19T12:57:22;2.07;;;1.90;;
9032;SDS011;4551;53.164;8.210;2022-08-19T12:59:59;2.23;;;1.80;;
9032;SDS011;4551;53.164;8.210;2022-08-19T13:02:31;2.73;;;2.50;;
9032;SDS011;4551;53.164;8.210;2022-08-19T13:05:05;2.00;;;1.90;;
9032;SDS011;4551;53.164;8.210;2022-08-19T13:07:35;2.13;;;2.00;;
9032;SDS011;4551;53.164;8.210;2022-08-19T13:10:05;1.83;;;1.73;;
9032;SDS011;4551;53.164;8.210;2022-08-19T13:12:36;2.57;;;2.13;;
9032;SDS011;4551;53.164;8.210;2022-08-19T13:15:05;2.30;;;2.10;;
9032;SDS011;4551;53.164;8.210;2022-08-19T13:17:37;2.63;;;2.43;;
9032;SDS011;4551;53.164;8.210;2022-08-19T13:20:07;3.27;;;1.80;;
9032;SDS011;4551;53.164;8.210;2022-08-19T13:22:36;2.07;;;1.97;;
9032;SDS011;4551;53.164;8.210;2022-08-19T13:25:05;2.07;;;1.97;;
9032;SDS011;4551;53.164;8.210;2022-08-19T13:27:36;2.10;;;1.90;;
9032;SDS011;4551;53.164;8.210;2022-08-19T13:30:06;2.30;;;1.90;;
9032;SDS011;4551;53.164;8.210;2022-08-19T13:32:53;2.00;;;1.90;;
9032;SDS011;4551;53.164;8.210;2022-08-19T13:35:43;2.70;;;2.23;;
9032;SDS011;4551;53.164;8.210;2022-08-19T13:38:14;2.40;;;2.17;;
9032;SDS011;4551;53.164;8.210;2022-08-19T13:40:44;2.00;;;1.90;;
9032;SDS011;4551;53.164;8.210;2022-08-19T13:43:14;3.60;;;2.00;;
9032;SDS011;4551;53.164;8.210;2022-08-19T13:45:49;2.40;;;2.20;;
9032;SDS011;4551;53.164;8.210;2022-08-19T13:48:22;2.00;;;1.80;;
9032;SDS011;4551;53.164;8.210;2022-08-19T13:50:52;1.90;;;1.80;;
9032;SDS011;4551;53.164;8.210;2022-08-19T13:53:21;1.90;;;1.80;;
9032;SDS011;4551;53.164;8.210;2022-08-19T13:55:49;1.80;;;1.70;;
9032;SDS011;4551;53.164;8.210;2022-08-19T13:58:21;1.97;;;1.87;;
9032;SDS011;4551;53.164;8.210;2022-08-19T14:00:49;2.10;;;2.00;;
9032;SDS011;4551;53.164;8.210;2022-08-19T14:03:18;2.00;;;1.90;;
9032;SDS011;4551;53.164;8.210;2022-08-19T14:05:46;1.93;;;1.83;;
9032;SDS011;4551;53.164;8.210;2022-08-19T14:08:14;2.17;;;1.97;;
9032;SDS011;4551;53.164;8.210;2022-08-19T14:10:43;1.87;;;1.77;;
9032;SDS011;4551;53.164;8.210;2022-08-19T14:13:13;2.07;;;1.97;;
9032;SDS011;4551;53.164;8.210;2022-08-19T14:15:44;4.28;;;2.10;;
9032;SDS011;4551;53.164;8.210;2022-08-19T14:18:13;2.10;;;2.00;;
9032;SDS011;4551;53.164;8.210;2022-08-19T14:20:41;2.47;;;2.35;;
9032;SDS011;4551;53.164;8.210;2022-08-19T14:23:10;2.50;;;2.30;;
9032;SDS011;4551;53.164;8.210;2022-08-19T14:25:40;2.47;;;2.28;;
9032;SDS011;4551;53.164;8.210;2022-08-19T14:28:11;2.53;;;2.42;;
9032;SDS011;4551;53.164;8.210;2022-08-19T14:30:40;1.90;;;1.80;;
9032;SDS011;4551;53.164;8.210;2022-08-19T14:33:13;2.05;;;1.95;;
9032;SDS011;4551;53.164;8.210;2022-08-19T14:35:44;3.10;;;2.10;;
9032;SDS011;4551;53.164;8.210;2022-08-19T14:38:14;2.13;;;2.03;;
9032;SDS011;4551;53.164;8.210;2022-08-19T14:40:53;2.35;;;2.25;;
9032;SDS011;4551;53.164;8.210;2022-08-19T14:43:22;2.50;;;2.28;;
9032;SDS011;4551;53.164;8.210;2022-08-19T14:45:50;2.30;;;2.10;;
9032;SDS011;4551;53.164;8.210;2022-08-19T14:48:21;2.10;;;2.00;;
9032;SDS011;4551;53.164;8.210;2022-08-19T14:50:54;2.25;;;2.15;;
9032;SDS011;4551;53.164;8.210;2022-08-19T14:53:22;2.40;;;2.20;;
9032;SDS011;4551;53.164;8.210;2022-08-19T14:55:51;2.45;;;2.03;;
9032;SDS011;4551;53.164;8.210;2022-08-19T14:58:19;2.30;;;2.20;;
9032;SDS011;4551;53.164;8.210;2022-08-19T15:00:56;2.42;;;1.95;;
9032;SDS011;4551;53.164;8.210;2022-08-19T15:03:27;2.40;;;2.30;;
9032;SDS011;4551;53.164;8.210;2022-08-19T15:05:58;2.38;;;2.28;;
9032;SDS011;4551;53.164;8.210;2022-08-19T15:08:28;2.28;;;2.10;;
9032;SDS011;4551;53.164;8.210;2022-08-19T15:10:58;2.28;;;2.15;;
9032;SDS011;4551;53.164;8.210;2022-08-19T15:13:28;2.30;;;2.20;;
9032;SDS011;4551;53.164;8.210;2022-08-19T15:15:57;2.28;;;2.17;;
9032;SDS011;4551;53.164;8.210;2022-08-19T15:18:26;2.30;;;2.10;;
9032;SDS011;4551;53.164;8.210;2022-08-19T15:20:55;2.55;;;2.45;;
9032;SDS011;4551;53.164;8.210;2022-08-19T15:23:23;2.40;;;2.30;;
9032;SDS011;4551;53.164;8.210;2022-08-19T15:25:52;2.80;;;2.60;;
9032;SDS011;4551;53.164;8.210;2022-08-19T15:28:22;2.50;;;2.40;;
9032;SDS011;4551;53.164;8.210;2022-08-19T15:30:51;2.75;;;2.60;;